sensor_id;sensor_type;location;lat;lon;timestamp;temperature;humidity
70368;DHT22;57789;53.868;10.728;2023-03-19T00:01:41;9.40;99.90
70368;DHT22;57789;53.868;10.728;2023-03-19T00:04:07;9.40;99.90
70368;DHT22;57789;53.868;10.728;2023-03-19T00:06:33;9.40;99.90
70368;DHT22;57789;53.868;10.728;2023-03-19T00:08:59;9.40;99.90
70368;DHT22;57789;53.868;10.728;2023-03-19T00:11:25;9.40;99.90
70368;DHT22;57789;53.868;10.728;2023-03-19T00:13:50;9.40;99.90
70368;DHT22;57789;53.868;10.728;2023-03-19T00:16:16;9.40;99.90
70368;DHT22;57789;53.868;10.728;2023-03-19T00:18:42;9.50;99.90
70368;DHT22;57789;53.868;10.728;2023-03-19T00:21:08;9.50;99.90
70368;DHT22;57789;53.868;10.728;2023-03-19T00:23:34;9.60;99.90
70368;DHT22;57789;53.868;10.728;2023-03-19T00:26:00;9.60;99.90
70368;DHT22;57789;53.868;10.728;2023-03-19T00:28:26;9.60;99.90
70368;DHT22;57789;53.868;10.728;2023-03-19T00:30:52;9.60;99.90
70368;DHT22;57789;53.868;10.728;2023-03-19T00:33:18;9.60;99.90
70368;DHT22;57789;53.868;10.728;2023-03-19T00:35:44;9.50;99.90
70368;DHT22;57789;53.868;10.728;2023-03-19T00:38:10;9.40;99.90
70368;DHT22;57789;53.868;10.728;2023-03-19T00:40:37;9.40;99.90
70368;DHT22;57789;53.868;10.728;2023-03-19T00:43:02;9.40;99.90
70368;DHT22;57789;53.868;10.728;2023-03-19T00:45:28;9.40;99.90
70368;DHT22;57789;53.868;10.728;2023-03-19T00:47:55;9.40;99.90
70368;DHT22;57789;53.868;10.728;2023-03-19T00:50:22;9.40;99.90
70368;DHT22;57789;53.868;10.728;2023-03-19T00:52:49;9.30;99.90
70368;DHT22;57789;53.868;10.728;2023-03-19T00:55:15;9.30;99.90
70368;DHT22;57789;53.868;10.728;2023-03-19T00:57:41;9.30;99.90
70368;DHT22;57789;53.868;10.728;2023-03-19T01:00:07;9.20;99.90
70368;DHT22;57789;53.868;10.728;2023-03-19T01:02:33;9.20;99.90
70368;DHT22;57789;53.868;10.728;2023-03-19T01:04:59;9.20;99.90
70368;DHT22;57789;53.868;10.728;2023-03-19T01:07:24;9.20;99.90
70368;DHT22;57789;53.868;10.728;2023-03-19T01:09:50;9.20;99.90
70368;DHT22;57789;53.868;10.728;2023-03-19T01:12:16;9.20;99.90
70368;DHT22;57789;53.868;10.728;2023-03-19T01:14:44;9.10;99.90
70368;DHT22;57789;53.868;10.728;2023-03-19T01:17:10;9.10;99.90
70368;DHT22;57789;53.868;10.728;2023-03-19T01:19:35;9.00;99.90
70368;DHT22;57789;53.868;10.728;2023-03-19T01:22:01;9.00;99.90
70368;DHT22;57789;53.868;10.728;2023-03-19T01:24:30;8.90;99.90
70368;DHT22;57789;53.868;10.728;2023-03-19T01:26:55;8.90;99.90
70368;DHT22;57789;53.868;10.728;2023-03-19T01:29:21;8.90;99.90
70368;DHT22;57789;53.868;10.728;2023-03-19T01:31:47;8.80;99.90
70368;DHT22;57789;53.868;10.728;2023-03-19T01:34:13;8.70;99.90
70368;DHT22;57789;53.868;10.728;2023-03-19T01:36:39;8.70;99.90
70368;DHT22;57789;53.868;10.728;2023-03-19T01:39:05;8.80;99.90
70368;DHT22;57789;53.868;10.728;2023-03-19T01:41:30;8.70;99.90
70368;DHT22;57789;53.868;10.728;2023-03-19T01:43:56;8.70;99.90
70368;DHT22;57789;53.868;10.728;2023-03-19T01:46:33;8.60;99.90
70368;DHT22;57789;53.868;10.728;2023-03-19T01:49:04;8.50;99.90
70368;DHT22;57789;53.868;10.728;2023-03-19T01:51:38;8.60;99.90
70368;DHT22;57789;53.868;10.728;2023-03-19T01:54:08;8.60;99.90
70368;DHT22;57789;53.868;10.728;2023-03-19T01:56:39;8.50;99.90
70368;DHT22;57789;53.868;10.728;2023-03-19T01:59:11;8.50;99.90
70368;DHT22;57789;53.868;10.728;2023-03-19T02:02:31;8.50;99.90
70368;DHT22;57789;53.868;10.728;2023-03-19T02:04:34;8.60;99.90
70368;DHT22;57789;53.868;10.728;2023-03-19T02:07:03;8.50;99.90
70368;DHT22;57789;53.868;10.728;2023-03-19T02:09:29;8.50;99.90
70368;DHT22;57789;53.868;10.728;2023-03-19T02:11:56;8.50;99.90
70368;DHT22;57789;53.868;10.728;2023-03-19T02:14:23;8.50;99.90
70368;DHT22;57789;53.868;10.728;2023-03-19T02:16:49;8.40;99.90
70368;DHT22;57789;53.868;10.728;2023-03-19T02:22:21;8.50;99.90
70368;DHT22;57789;53.868;10.728;2023-03-19T02:25:12;8.40;99.90
70368;DHT22;57789;53.868;10.728;2023-03-19T02:27:40;8.40;99.90
70368;DHT22;57789;53.868;10.728;2023-03-19T02:30:30;8.40;99.90
70368;DHT22;57789;53.868;10.728;2023-03-19T02:32:56;8.40;99.90
70368;DHT22;57789;53.868;10.728;2023-03-19T02:35:22;8.30;99.90
70368;DHT22;57789;53.868;10.728;2023-03-19T02:37:47;8.20;99.90
70368;DHT22;57789;53.868;10.728;2023-03-19T02:40:28;8.30;99.90
70368;DHT22;57789;53.868;10.728;2023-03-19T02:42:54;8.20;99.90
70368;DHT22;57789;53.868;10.728;2023-03-19T02:45:20;8.20;99.90
70368;DHT22;57789;53.868;10.728;2023-03-19T02:47:45;8.20;99.90
70368;DHT22;57789;53.868;10.728;2023-03-19T02:50:12;8.20;99.90
70368;DHT22;57789;53.868;10.728;2023-03-19T02:52:38;8.20;99.90
70368;DHT22;57789;53.868;10.728;2023-03-19T02:55:04;8.20;99.90
70368;DHT22;57789;53.868;10.728;2023-03-19T02:57:29;8.20;99.90
70368;DHT22;57789;53.868;10.728;2023-03-19T02:59:55;8.20;99.90
70368;DHT22;57789;53.868;10.728;2023-03-19T03:02:21;8.20;99.90
70368;DHT22;57789;53.868;10.728;2023-03-19T03:04:46;8.20;99.90
70368;DHT22;57789;53.868;10.728;2023-03-19T03:07:12;8.20;99.90
70368;DHT22;57789;53.868;10.728;2023-03-19T03:09:38;8.30;99.90
70368;DHT22;57789;53.868;10.728;2023-03-19T03:12:03;8.20;99.90
70368;DHT22;57789;53.868;10.728;2023-03-19T03:14:30;8.20;99.90
70368;DHT22;57789;53.868;10.728;2023-03-19T03:16:56;8.30;99.90
70368;DHT22;57789;53.868;10.728;2023-03-19T03:19:22;8.30;99.90
70368;DHT22;57789;53.868;10.728;2023-03-19T03:21:47;8.30;99.90
70368;DHT22;57789;53.868;10.728;2023-03-19T03:24:13;8.20;99.90
70368;DHT22;57789;53.868;10.728;2023-03-19T03:26:39;8.30;99.90
70368;DHT22;57789;53.868;10.728;2023-03-19T03:29:06;8.10;99.90
70368;DHT22;57789;53.868;10.728;2023-03-19T03:31:32;8.10;99.90
70368;DHT22;57789;53.868;10.728;2023-03-19T03:34:00;8.10;99.90
70368;DHT22;57789;53.868;10.728;2023-03-19T03:36:26;8.10;99.90
70368;DHT22;57789;53.868;10.728;2023-03-19T03:38:52;8.10;99.90
70368;DHT22;57789;53.868;10.728;2023-03-19T03:41:18;8.00;99.90
70368;DHT22;57789;53.868;10.728;2023-03-19T03:43:44;8.10;99.90
70368;DHT22;57789;53.868;10.728;2023-03-19T03:46:10;8.00;99.90
70368;DHT22;57789;53.868;10.728;2023-03-19T03:48:36;8.00;99.90
70368;DHT22;57789;53.868;10.728;2023-03-19T03:51:02;8.00;99.90
70368;DHT22;57789;53.868;10.728;2023-03-19T03:53:28;8.00;99.90
70368;DHT22;57789;53.868;10.728;2023-03-19T03:55:54;8.00;99.90
70368;DHT22;57789;53.868;10.728;2023-03-19T03:58:20;8.10;99.90
70368;DHT22;57789;53.868;10.728;2023-03-19T04:00:46;8.10;99.90
70368;DHT22;57789;53.868;10.728;2023-03-19T04:03:13;8.10;99.90
70368;DHT22;57789;53.868;10.728;2023-03-19T04:05:38;8.20;99.90
70368;DHT22;57789;53.868;10.728;2023-03-19T04:08:06;8.20;99.90
70368;DHT22;57789;53.868;10.728;2023-03-19T04:10:32;8.30;99.90
70368;DHT22;57789;53.868;10.728;2023-03-19T04:13:00;8.30;99.90
70368;DHT22;57789;53.868;10.728;2023-03-19T04:15:26;8.30;99.90
70368;DHT22;57789;53.868;10.728;2023-03-19T04:17:52;8.30;99.90
70368;DHT22;57789;53.868;10.728;2023-03-19T04:20:18;8.40;99.90
70368;DHT22;57789;53.868;10.728;2023-03-19T04:22:44;8.40;99.90
70368;DHT22;57789;53.868;10.728;2023-03-19T04:25:10;8.40;99.90
70368;DHT22;57789;53.868;10.728;2023-03-19T04:27:35;8.40;99.90
70368;DHT22;57789;53.868;10.728;2023-03-19T04:30:02;8.50;99.90
70368;DHT22;57789;53.868;10.728;2023-03-19T04:32:28;8.40;99.90
70368;DHT22;57789;53.868;10.728;2023-03-19T04:34:54;8.40;99.90
70368;DHT22;57789;53.868;10.728;2023-03-19T04:37:20;8.40;99.90
70368;DHT22;57789;53.868;10.728;2023-03-19T04:39:46;8.30;99.90
70368;DHT22;57789;53.868;10.728;2023-03-19T04:42:12;8.30;99.90
70368;DHT22;57789;53.868;10.728;2023-03-19T04:44:37;8.30;99.90
70368;DHT22;57789;53.868;10.728;2023-03-19T04:47:04;8.30;99.90
70368;DHT22;57789;53.868;10.728;2023-03-19T04:49:29;8.30;99.90
70368;DHT22;57789;53.868;10.728;2023-03-19T04:51:58;8.20;99.90
70368;DHT22;57789;53.868;10.728;2023-03-19T04:54:24;8.20;99.90
70368;DHT22;57789;53.868;10.728;2023-03-19T04:56:50;8.20;99.90
70368;DHT22;57789;53.868;10.728;2023-03-19T04:59:17;8.20;99.90
70368;DHT22;57789;53.868;10.728;2023-03-19T05:01:43;8.10;99.90
70368;DHT22;57789;53.868;10.728;2023-03-19T05:04:08;8.10;99.90
70368;DHT22;57789;53.868;10.728;2023-03-19T05:06:35;8.10;99.90
70368;DHT22;57789;53.868;10.728;2023-03-19T05:09:03;8.10;99.90
70368;DHT22;57789;53.868;10.728;2023-03-19T05:11:29;8.10;99.90
70368;DHT22;57789;53.868;10.728;2023-03-19T05:13:55;8.10;99.90
70368;DHT22;57789;53.868;10.728;2023-03-19T05:16:21;8.00;99.90
70368;DHT22;57789;53.868;10.728;2023-03-19T05:18:47;8.00;99.90
70368;DHT22;57789;53.868;10.728;2023-03-19T05:21:13;8.00;99.90
70368;DHT22;57789;53.868;10.728;2023-03-19T05:23:39;7.90;99.90
70368;DHT22;57789;53.868;10.728;2023-03-19T05:26:05;7.80;99.90
70368;DHT22;57789;53.868;10.728;2023-03-19T05:28:32;7.70;99.90
70368;DHT22;57789;53.868;10.728;2023-03-19T05:30:57;7.70;99.90
70368;DHT22;57789;53.868;10.728;2023-03-19T05:33:23;7.70;99.90
70368;DHT22;57789;53.868;10.728;2023-03-19T05:35:49;7.80;99.90
70368;DHT22;57789;53.868;10.728;2023-03-19T05:38:15;7.80;99.90
70368;DHT22;57789;53.868;10.728;2023-03-19T05:40:41;7.80;99.90
70368;DHT22;57789;53.868;10.728;2023-03-19T05:43:08;7.80;99.90
70368;DHT22;57789;53.868;10.728;2023-03-19T05:45:35;7.90;99.90
70368;DHT22;57789;53.868;10.728;2023-03-19T05:48:04;7.90;99.90
70368;DHT22;57789;53.868;10.728;2023-03-19T05:50:30;7.90;99.90
70368;DHT22;57789;53.868;10.728;2023-03-19T05:52:58;7.90;99.90
70368;DHT22;57789;53.868;10.728;2023-03-19T05:55:24;7.90;99.90
70368;DHT22;57789;53.868;10.728;2023-03-19T05:57:50;7.90;99.90
70368;DHT22;57789;53.868;10.728;2023-03-19T06:00:16;8.10;99.90
70368;DHT22;57789;53.868;10.728;2023-03-19T06:02:42;8.10;99.90
70368;DHT22;57789;53.868;10.728;2023-03-19T06:05:09;8.10;99.90
70368;DHT22;57789;53.868;10.728;2023-03-19T06:07:35;8.20;99.90
70368;DHT22;57789;53.868;10.728;2023-03-19T06:10:01;8.20;99.90
70368;DHT22;57789;53.868;10.728;2023-03-19T06:12:27;8.30;99.90
70368;DHT22;57789;53.868;10.728;2023-03-19T06:14:53;8.30;99.90
70368;DHT22;57789;53.868;10.728;2023-03-19T06:17:19;8.30;99.90
70368;DHT22;57789;53.868;10.728;2023-03-19T06:19:44;8.50;99.90
70368;DHT22;57789;53.868;10.728;2023-03-19T06:22:11;8.50;99.90
70368;DHT22;57789;53.868;10.728;2023-03-19T06:24:36;8.60;99.90
70368;DHT22;57789;53.868;10.728;2023-03-19T06:27:02;8.70;99.90
70368;DHT22;57789;53.868;10.728;2023-03-19T06:29:28;8.80;99.90
70368;DHT22;57789;53.868;10.728;2023-03-19T06:31:53;8.80;99.90
70368;DHT22;57789;53.868;10.728;2023-03-19T06:34:19;8.80;99.90
70368;DHT22;57789;53.868;10.728;2023-03-19T06:36:45;8.90;99.90
70368;DHT22;57789;53.868;10.728;2023-03-19T06:39:11;8.90;99.90
70368;DHT22;57789;53.868;10.728;2023-03-19T06:41:37;9.00;99.90
70368;DHT22;57789;53.868;10.728;2023-03-19T06:44:03;9.00;99.90
70368;DHT22;57789;53.868;10.728;2023-03-19T06:46:28;9.20;99.90
70368;DHT22;57789;53.868;10.728;2023-03-19T06:48:54;9.30;99.90
70368;DHT22;57789;53.868;10.728;2023-03-19T06:51:20;9.30;99.90
70368;DHT22;57789;53.868;10.728;2023-03-19T06:53:46;9.40;99.90
70368;DHT22;57789;53.868;10.728;2023-03-19T06:56:12;9.50;99.90
70368;DHT22;57789;53.868;10.728;2023-03-19T06:58:37;9.60;99.90
70368;DHT22;57789;53.868;10.728;2023-03-19T07:01:03;9.70;99.90
70368;DHT22;57789;53.868;10.728;2023-03-19T07:03:29;9.80;99.90
70368;DHT22;57789;53.868;10.728;2023-03-19T07:05:55;9.90;99.90
70368;DHT22;57789;53.868;10.728;2023-03-19T07:08:21;10.00;99.90
70368;DHT22;57789;53.868;10.728;2023-03-19T07:10:47;10.00;99.90
70368;DHT22;57789;53.868;10.728;2023-03-19T07:13:13;10.10;99.90
70368;DHT22;57789;53.868;10.728;2023-03-19T07:15:39;10.10;99.90
70368;DHT22;57789;53.868;10.728;2023-03-19T07:18:04;10.20;99.90
70368;DHT22;57789;53.868;10.728;2023-03-19T07:20:30;10.20;99.90
70368;DHT22;57789;53.868;10.728;2023-03-19T07:22:56;10.30;99.90
70368;DHT22;57789;53.868;10.728;2023-03-19T07:25:22;10.30;99.90
70368;DHT22;57789;53.868;10.728;2023-03-19T07:27:48;10.40;99.90
70368;DHT22;57789;53.868;10.728;2023-03-19T07:30:14;10.50;99.90
70368;DHT22;57789;53.868;10.728;2023-03-19T07:32:40;10.60;99.90
70368;DHT22;57789;53.868;10.728;2023-03-19T07:35:07;10.70;99.90
70368;DHT22;57789;53.868;10.728;2023-03-19T07:37:33;10.80;99.90
70368;DHT22;57789;53.868;10.728;2023-03-19T07:39:59;10.90;99.90
70368;DHT22;57789;53.868;10.728;2023-03-19T07:42:25;11.00;99.90
70368;DHT22;57789;53.868;10.728;2023-03-19T07:44:51;11.10;99.90
70368;DHT22;57789;53.868;10.728;2023-03-19T07:47:16;11.10;99.90
70368;DHT22;57789;53.868;10.728;2023-03-19T07:49:42;11.20;99.90
70368;DHT22;57789;53.868;10.728;2023-03-19T07:52:08;11.30;99.90
70368;DHT22;57789;53.868;10.728;2023-03-19T07:54:33;11.40;99.90
70368;DHT22;57789;53.868;10.728;2023-03-19T07:57:00;11.40;99.90
70368;DHT22;57789;53.868;10.728;2023-03-19T07:59:25;11.50;99.90
70368;DHT22;57789;53.868;10.728;2023-03-19T08:01:51;11.70;99.90
70368;DHT22;57789;53.868;10.728;2023-03-19T08:04:17;11.90;99.90
70368;DHT22;57789;53.868;10.728;2023-03-19T08:06:42;12.00;99.90
70368;DHT22;57789;53.868;10.728;2023-03-19T08:09:08;12.10;99.90
70368;DHT22;57789;53.868;10.728;2023-03-19T08:11:34;12.30;99.90
70368;DHT22;57789;53.868;10.728;2023-03-19T08:14:00;12.30;99.90
70368;DHT22;57789;53.868;10.728;2023-03-19T08:16:26;12.40;99.90
70368;DHT22;57789;53.868;10.728;2023-03-19T08:18:51;12.50;99.90
70368;DHT22;57789;53.868;10.728;2023-03-19T08:21:17;12.50;99.90
70368;DHT22;57789;53.868;10.728;2023-03-19T08:23:43;12.60;99.90
70368;DHT22;57789;53.868;10.728;2023-03-19T08:26:09;12.80;99.90
70368;DHT22;57789;53.868;10.728;2023-03-19T08:28:34;13.00;99.90
70368;DHT22;57789;53.868;10.728;2023-03-19T08:31:12;13.10;99.90
70368;DHT22;57789;53.868;10.728;2023-03-19T08:33:38;13.30;99.90
70368;DHT22;57789;53.868;10.728;2023-03-19T08:36:10;13.50;99.90
70368;DHT22;57789;53.868;10.728;2023-03-19T08:38:36;13.80;99.90
70368;DHT22;57789;53.868;10.728;2023-03-19T08:41:01;13.90;99.90
70368;DHT22;57789;53.868;10.728;2023-03-19T08:43:29;14.10;99.90
70368;DHT22;57789;53.868;10.728;2023-03-19T08:45:55;14.30;99.90
70368;DHT22;57789;53.868;10.728;2023-03-19T08:48:21;14.50;99.90
70368;DHT22;57789;53.868;10.728;2023-03-19T08:50:55;14.70;99.90
70368;DHT22;57789;53.868;10.728;2023-03-19T08:53:21;14.80;99.90
70368;DHT22;57789;53.868;10.728;2023-03-19T08:55:52;15.00;99.90
70368;DHT22;57789;53.868;10.728;2023-03-19T08:58:18;15.10;99.90
70368;DHT22;57789;53.868;10.728;2023-03-19T09:00:44;15.30;99.90
70368;DHT22;57789;53.868;10.728;2023-03-19T09:03:10;15.10;99.90
70368;DHT22;57789;53.868;10.728;2023-03-19T09:05:36;15.00;99.90
70368;DHT22;57789;53.868;10.728;2023-03-19T09:08:01;14.90;99.90
70368;DHT22;57789;53.868;10.728;2023-03-19T09:10:27;14.90;99.90
70368;DHT22;57789;53.868;10.728;2023-03-19T09:12:53;14.90;99.90
70368;DHT22;57789;53.868;10.728;2023-03-19T09:15:18;14.90;99.90
70368;DHT22;57789;53.868;10.728;2023-03-19T09:17:44;14.90;99.90
70368;DHT22;57789;53.868;10.728;2023-03-19T09:20:10;14.90;99.90
70368;DHT22;57789;53.868;10.728;2023-03-19T09:22:35;15.00;99.90
70368;DHT22;57789;53.868;10.728;2023-03-19T09:25:01;15.30;99.90
70368;DHT22;57789;53.868;10.728;2023-03-19T09:27:27;15.70;99.90
70368;DHT22;57789;53.868;10.728;2023-03-19T09:29:53;15.90;99.90
70368;DHT22;57789;53.868;10.728;2023-03-19T09:32:18;16.10;99.90
70368;DHT22;57789;53.868;10.728;2023-03-19T09:34:44;16.00;99.90
70368;DHT22;57789;53.868;10.728;2023-03-19T09:37:11;16.00;99.90
70368;DHT22;57789;53.868;10.728;2023-03-19T09:39:37;15.90;99.90
70368;DHT22;57789;53.868;10.728;2023-03-19T09:44:36;15.70;99.90
70368;DHT22;57789;53.868;10.728;2023-03-19T09:49:39;15.80;99.90
70368;DHT22;57789;53.868;10.728;2023-03-19T09:54:51;16.00;99.90
70368;DHT22;57789;53.868;10.728;2023-03-19T09:57:21;16.30;99.90
70368;DHT22;57789;53.868;10.728;2023-03-19T09:59:46;16.70;99.90
70368;DHT22;57789;53.868;10.728;2023-03-19T10:02:41;16.70;99.90
70368;DHT22;57789;53.868;10.728;2023-03-19T10:14:06;16.80;99.90
70368;DHT22;57789;53.868;10.728;2023-03-19T10:16:39;17.00;99.90
70368;DHT22;57789;53.868;10.728;2023-03-19T10:19:08;17.10;99.90
70368;DHT22;57789;53.868;10.728;2023-03-19T10:21:54;17.10;99.90
70368;DHT22;57789;53.868;10.728;2023-03-19T10:24:33;17.20;99.90
70368;DHT22;57789;53.868;10.728;2023-03-19T10:27:09;17.50;99.90
70368;DHT22;57789;53.868;10.728;2023-03-19T10:29:37;17.70;99.90
70368;DHT22;57789;53.868;10.728;2023-03-19T10:34:34;18.10;99.90
70368;DHT22;57789;53.868;10.728;2023-03-19T10:37:04;18.40;99.90
70368;DHT22;57789;53.868;10.728;2023-03-19T10:39:34;18.00;99.90
70368;DHT22;57789;53.868;10.728;2023-03-19T10:45:31;17.60;99.90
70368;DHT22;57789;53.868;10.728;2023-03-19T10:47:37;18.00;99.90
70368;DHT22;57789;53.868;10.728;2023-03-19T10:50:03;18.20;99.90
70368;DHT22;57789;53.868;10.728;2023-03-19T10:52:32;18.30;99.90
70368;DHT22;57789;53.868;10.728;2023-03-19T10:57:32;18.20;99.90
70368;DHT22;57789;53.868;10.728;2023-03-19T11:00:05;18.20;99.90
70368;DHT22;57789;53.868;10.728;2023-03-19T11:02:35;17.90;99.90
70368;DHT22;57789;53.868;10.728;2023-03-19T11:07:38;17.50;99.90
70368;DHT22;57789;53.868;10.728;2023-03-19T11:10:12;17.60;99.90
70368;DHT22;57789;53.868;10.728;2023-03-19T11:12:38;17.70;99.90
70368;DHT22;57789;53.868;10.728;2023-03-19T11:15:21;17.90;99.90
70368;DHT22;57789;53.868;10.728;2023-03-19T11:17:49;18.40;99.90
70368;DHT22;57789;53.868;10.728;2023-03-19T11:23:16;19.20;99.90
70368;DHT22;57789;53.868;10.728;2023-03-19T11:25:49;19.80;99.90
70368;DHT22;57789;53.868;10.728;2023-03-19T11:28:25;20.10;99.90
70368;DHT22;57789;53.868;10.728;2023-03-19T11:31:10;20.50;99.90
70368;DHT22;57789;53.868;10.728;2023-03-19T11:45:27;20.80;99.90
70368;DHT22;57789;53.868;10.728;2023-03-19T12:00:55;19.60;99.90
70368;DHT22;57789;53.868;10.728;2023-03-19T12:08:48;18.70;99.90
70368;DHT22;57789;53.868;10.728;2023-03-19T12:11:28;18.50;99.90
70368;DHT22;57789;53.868;10.728;2023-03-19T12:19:41;18.40;99.90
70368;DHT22;57789;53.868;10.728;2023-03-19T12:22:34;18.50;99.90
70368;DHT22;57789;53.868;10.728;2023-03-19T12:25:19;18.50;99.90
70368;DHT22;57789;53.868;10.728;2023-03-19T12:28:09;18.10;99.90
70368;DHT22;57789;53.868;10.728;2023-03-19T12:30:44;17.70;99.90
70368;DHT22;57789;53.868;10.728;2023-03-19T12:35:59;17.70;99.90
70368;DHT22;57789;53.868;10.728;2023-03-19T12:38:46;17.60;99.90
70368;DHT22;57789;53.868;10.728;2023-03-19T12:41:23;17.60;99.90
70368;DHT22;57789;53.868;10.728;2023-03-19T12:46:37;17.70;99.90
70368;DHT22;57789;53.868;10.728;2023-03-19T12:49:32;17.60;99.90
70368;DHT22;57789;53.868;10.728;2023-03-19T12:52:23;17.60;99.90
70368;DHT22;57789;53.868;10.728;2023-03-19T12:54:55;17.60;99.90
70368;DHT22;57789;53.868;10.728;2023-03-19T12:57:44;17.40;99.90
70368;DHT22;57789;53.868;10.728;2023-03-19T13:03:04;17.30;99.90
70368;DHT22;57789;53.868;10.728;2023-03-19T13:08:02;17.20;99.90
70368;DHT22;57789;53.868;10.728;2023-03-19T13:10:30;17.10;99.90
70368;DHT22;57789;53.868;10.728;2023-03-19T13:12:57;17.00;99.90
70368;DHT22;57789;53.868;10.728;2023-03-19T13:15:42;16.90;99.90
70368;DHT22;57789;53.868;10.728;2023-03-19T13:18:32;16.80;99.90
70368;DHT22;57789;53.868;10.728;2023-03-19T13:24:01;16.50;99.90
70368;DHT22;57789;53.868;10.728;2023-03-19T13:26:27;16.20;99.90
70368;DHT22;57789;53.868;10.728;2023-03-19T13:28:59;15.90;99.90
70368;DHT22;57789;53.868;10.728;2023-03-19T13:31:27;15.70;99.90
70368;DHT22;57789;53.868;10.728;2023-03-19T13:36:41;15.40;99.90
70368;DHT22;57789;53.868;10.728;2023-03-19T13:39:19;15.20;99.90
70368;DHT22;57789;53.868;10.728;2023-03-19T13:53:20;14.30;99.90
70368;DHT22;57789;53.868;10.728;2023-03-19T13:55:57;13.90;99.90
70368;DHT22;57789;53.868;10.728;2023-03-19T13:58:26;13.50;99.90
70368;DHT22;57789;53.868;10.728;2023-03-19T14:04:04;12.90;99.90
70368;DHT22;57789;53.868;10.728;2023-03-19T14:06:41;12.70;99.90
70368;DHT22;57789;53.868;10.728;2023-03-19T14:09:27;12.30;99.90
70368;DHT22;57789;53.868;10.728;2023-03-19T14:11:54;12.00;99.90
70368;DHT22;57789;53.868;10.728;2023-03-19T14:14:22;11.80;99.90
70368;DHT22;57789;53.868;10.728;2023-03-19T14:16:50;11.70;99.90
70368;DHT22;57789;53.868;10.728;2023-03-19T14:19:19;11.60;99.90
70368;DHT22;57789;53.868;10.728;2023-03-19T14:22:07;11.60;99.90
70368;DHT22;57789;53.868;10.728;2023-03-19T14:24:35;11.80;99.90
70368;DHT22;57789;53.868;10.728;2023-03-19T14:27:14;12.00;99.90
70368;DHT22;57789;53.868;10.728;2023-03-19T14:29:42;12.30;99.90
70368;DHT22;57789;53.868;10.728;2023-03-19T14:32:16;12.50;99.90
70368;DHT22;57789;53.868;10.728;2023-03-19T14:34:44;12.90;99.90
70368;DHT22;57789;53.868;10.728;2023-03-19T14:37:28;13.20;99.90
70368;DHT22;57789;53.868;10.728;2023-03-19T14:40:10;13.40;99.90
70368;DHT22;57789;53.868;10.728;2023-03-19T14:48:14;13.40;99.90
70368;DHT22;57789;53.868;10.728;2023-03-19T14:56:12;13.20;99.90
70368;DHT22;57789;53.868;10.728;2023-03-19T14:58:50;13.20;99.90
70368;DHT22;57789;53.868;10.728;2023-03-19T15:01:18;13.20;99.90
70368;DHT22;57789;53.868;10.728;2023-03-19T15:03:44;13.30;99.90
70368;DHT22;57789;53.868;10.728;2023-03-19T15:06:12;13.30;99.90
70368;DHT22;57789;53.868;10.728;2023-03-19T15:08:40;13.40;99.90
70368;DHT22;57789;53.868;10.728;2023-03-19T15:11:10;13.40;99.90
70368;DHT22;57789;53.868;10.728;2023-03-19T15:19:10;13.20;99.90
70368;DHT22;57789;53.868;10.728;2023-03-19T15:21:38;13.20;99.90
70368;DHT22;57789;53.868;10.728;2023-03-19T15:24:05;13.20;99.90
70368;DHT22;57789;53.868;10.728;2023-03-19T15:26:35;13.00;99.90
70368;DHT22;57789;53.868;10.728;2023-03-19T15:29:02;13.00;99.90
70368;DHT22;57789;53.868;10.728;2023-03-19T15:31:45;12.90;99.90
70368;DHT22;57789;53.868;10.728;2023-03-19T15:34:22;12.90;99.90
70368;DHT22;57789;53.868;10.728;2023-03-19T15:36:52;12.90;99.90
70368;DHT22;57789;53.868;10.728;2023-03-19T15:39:21;12.90;99.90
70368;DHT22;57789;53.868;10.728;2023-03-19T15:41:50;12.90;99.90
70368;DHT22;57789;53.868;10.728;2023-03-19T15:44:51;12.90;99.90
70368;DHT22;57789;53.868;10.728;2023-03-19T15:47:23;12.90;99.90
70368;DHT22;57789;53.868;10.728;2023-03-19T15:50:03;12.90;99.90
70368;DHT22;57789;53.868;10.728;2023-03-19T15:52:33;12.90;99.90
70368;DHT22;57789;53.868;10.728;2023-03-19T15:55:01;12.80;99.90
70368;DHT22;57789;53.868;10.728;2023-03-19T15:57:28;12.90;99.90
70368;DHT22;57789;53.868;10.728;2023-03-19T15:59:55;12.90;99.90
70368;DHT22;57789;53.868;10.728;2023-03-19T16:02:31;12.90;99.90
70368;DHT22;57789;53.868;10.728;2023-03-19T16:04:59;13.00;99.90
70368;DHT22;57789;53.868;10.728;2023-03-19T16:09:57;13.10;99.90
70368;DHT22;57789;53.868;10.728;2023-03-19T16:12:47;13.00;99.90
70368;DHT22;57789;53.868;10.728;2023-03-19T16:15:43;13.00;99.90
70368;DHT22;57789;53.868;10.728;2023-03-19T16:21:05;13.00;99.90
70368;DHT22;57789;53.868;10.728;2023-03-19T16:23:34;13.00;99.90
70368;DHT22;57789;53.868;10.728;2023-03-19T16:26:11;12.90;99.90
70368;DHT22;57789;53.868;10.728;2023-03-19T16:28:42;12.90;99.90
70368;DHT22;57789;53.868;10.728;2023-03-19T16:31:23;12.90;99.90
70368;DHT22;57789;53.868;10.728;2023-03-19T16:33:49;12.90;99.90
70368;DHT22;57789;53.868;10.728;2023-03-19T16:36:17;12.80;99.90
70368;DHT22;57789;53.868;10.728;2023-03-19T16:39:41;12.80;99.90
70368;DHT22;57789;53.868;10.728;2023-03-19T16:41:42;12.70;99.90
70368;DHT22;57789;53.868;10.728;2023-03-19T16:44:14;12.70;99.90
70368;DHT22;57789;53.868;10.728;2023-03-19T16:46:40;12.60;99.90
70368;DHT22;57789;53.868;10.728;2023-03-19T16:49:06;12.60;99.90
70368;DHT22;57789;53.868;10.728;2023-03-19T16:51:32;12.60;99.90
70368;DHT22;57789;53.868;10.728;2023-03-19T16:53:58;12.60;99.90
70368;DHT22;57789;53.868;10.728;2023-03-19T16:56:24;12.60;99.90
70368;DHT22;57789;53.868;10.728;2023-03-19T16:58:50;12.50;99.90
70368;DHT22;57789;53.868;10.728;2023-03-19T17:01:18;12.50;99.90
70368;DHT22;57789;53.868;10.728;2023-03-19T17:03:46;12.50;99.90
70368;DHT22;57789;53.868;10.728;2023-03-19T17:06:13;12.40;99.90
70368;DHT22;57789;53.868;10.728;2023-03-19T17:08:39;12.40;99.90
70368;DHT22;57789;53.868;10.728;2023-03-19T17:11:06;12.50;99.90
70368;DHT22;57789;53.868;10.728;2023-03-19T17:13:32;12.50;99.90
70368;DHT22;57789;53.868;10.728;2023-03-19T17:16:05;12.50;99.90
70368;DHT22;57789;53.868;10.728;2023-03-19T17:18:34;12.40;99.90
70368;DHT22;57789;53.868;10.728;2023-03-19T17:21:14;12.40;99.90
70368;DHT22;57789;53.868;10.728;2023-03-19T17:23:41;12.40;99.90
70368;DHT22;57789;53.868;10.728;2023-03-19T17:26:24;12.40;99.90
70368;DHT22;57789;53.868;10.728;2023-03-19T17:28:52;12.30;99.90
70368;DHT22;57789;53.868;10.728;2023-03-19T17:31:29;12.30;99.90
70368;DHT22;57789;53.868;10.728;2023-03-19T17:34:15;12.40;99.90
70368;DHT22;57789;53.868;10.728;2023-03-19T17:36:44;12.40;99.90